sensor_id;sensor_type;location;lat;lon;timestamp;P1;durP1;ratioP1;P2;durP2;ratioP2
64871;SDS011;51351;51.450;6.614;2023-08-17T00:00:21;7.93;;;3.67;;
64871;SDS011;51351;51.450;6.614;2023-08-17T00:02:47;6.05;;;3.95;;
64871;SDS011;51351;51.450;6.614;2023-08-17T00:05:12;7.80;;;3.90;;
64871;SDS011;51351;51.450;6.614;2023-08-17T00:07:38;5.82;;;3.03;;
64871;SDS011;51351;51.450;6.614;2023-08-17T00:10:04;4.07;;;2.60;;
64871;SDS011;51351;51.450;6.614;2023-08-17T00:12:29;4.35;;;2.72;;
64871;SDS011;51351;51.450;6.614;2023-08-17T00:14:55;3.92;;;2.88;;
64871;SDS011;51351;51.450;6.614;2023-08-17T00:17:20;5.72;;;3.67;;
64871;SDS011;51351;51.450;6.614;2023-08-17T00:19:47;9.40;;;5.40;;
64871;SDS011;51351;51.450;6.614;2023-08-17T00:22:12;8.50;;;5.82;;
64871;SDS011;51351;51.450;6.614;2023-08-17T00:24:38;6.10;;;4.00;;
64871;SDS011;51351;51.450;6.614;2023-08-17T00:27:05;4.18;;;3.58;;
64871;SDS011;51351;51.450;6.614;2023-08-17T00:29:31;3.75;;;3.25;;
64871;SDS011;51351;51.450;6.614;2023-08-17T00:31:57;6.20;;;2.65;;
64871;SDS011;51351;51.450;6.614;2023-08-17T00:34:22;5.78;;;2.22;;
64871;SDS011;51351;51.450;6.614;2023-08-17T00:36:48;5.80;;;3.40;;
64871;SDS011;51351;51.450;6.614;2023-08-17T00:39:13;8.75;;;5.85;;
64871;SDS011;51351;51.450;6.614;2023-08-17T00:41:39;11.18;;;6.95;;
64871;SDS011;51351;51.450;6.614;2023-08-17T00:44:05;7.15;;;5.55;;
64871;SDS011;51351;51.450;6.614;2023-08-17T00:46:31;7.40;;;4.88;;
64871;SDS011;51351;51.450;6.614;2023-08-17T00:48:57;6.75;;;4.72;;
64871;SDS011;51351;51.450;6.614;2023-08-17T00:51:23;5.15;;;3.22;;
64871;SDS011;51351;51.450;6.614;2023-08-17T00:53:53;3.80;;;3.03;;
64871;SDS011;51351;51.450;6.614;2023-08-17T00:58:48;5.88;;;3.20;;
64871;SDS011;51351;51.450;6.614;2023-08-17T01:03:39;5.38;;;4.72;;
64871;SDS011;51351;51.450;6.614;2023-08-17T01:06:09;10.43;;;5.80;;
64871;SDS011;51351;51.450;6.614;2023-08-17T01:08:35;7.57;;;4.88;;
64871;SDS011;51351;51.450;6.614;2023-08-17T01:11:06;7.15;;;5.70;;
64871;SDS011;51351;51.450;6.614;2023-08-17T01:13:39;8.48;;;5.30;;
64871;SDS011;51351;51.450;6.614;2023-08-17T01:16:14;8.88;;;6.03;;
64871;SDS011;51351;51.450;6.614;2023-08-17T01:18:47;7.30;;;5.20;;
64871;SDS011;51351;51.450;6.614;2023-08-17T01:21:16;6.22;;;4.25;;
64871;SDS011;51351;51.450;6.614;2023-08-17T01:23:46;7.30;;;5.07;;
64871;SDS011;51351;51.450;6.614;2023-08-17T01:26:14;8.95;;;6.10;;
64871;SDS011;51351;51.450;6.614;2023-08-17T01:28:42;8.65;;;6.78;;
64871;SDS011;51351;51.450;6.614;2023-08-17T01:31:11;12.82;;;7.78;;
64871;SDS011;51351;51.450;6.614;2023-08-17T01:33:49;9.13;;;6.43;;
64871;SDS011;51351;51.450;6.614;2023-08-17T01:36:20;6.32;;;5.60;;
64871;SDS011;51351;51.450;6.614;2023-08-17T01:38:58;7.15;;;5.95;;
64871;SDS011;51351;51.450;6.614;2023-08-17T01:41:25;7.10;;;4.60;;
64871;SDS011;51351;51.450;6.614;2023-08-17T01:43:51;6.00;;;4.80;;
64871;SDS011;51351;51.450;6.614;2023-08-17T01:46:20;7.60;;;5.30;;
64871;SDS011;51351;51.450;6.614;2023-08-17T01:48:46;10.73;;;5.60;;
64871;SDS011;51351;51.450;6.614;2023-08-17T01:51:15;10.60;;;5.03;;
64871;SDS011;51351;51.450;6.614;2023-08-17T01:53:47;6.47;;;5.78;;
64871;SDS011;51351;51.450;6.614;2023-08-17T01:56:13;12.55;;;5.43;;
64871;SDS011;51351;51.450;6.614;2023-08-17T01:58:39;7.05;;;5.93;;
64871;SDS011;51351;51.450;6.614;2023-08-17T02:01:04;7.38;;;5.68;;
64871;SDS011;51351;51.450;6.614;2023-08-17T02:03:30;10.77;;;5.90;;
64871;SDS011;51351;51.450;6.614;2023-08-17T02:05:55;7.57;;;4.70;;
64871;SDS011;51351;51.450;6.614;2023-08-17T02:08:21;5.85;;;4.10;;
64871;SDS011;51351;51.450;6.614;2023-08-17T02:10:47;7.05;;;3.92;;
64871;SDS011;51351;51.450;6.614;2023-08-17T02:13:14;7.43;;;4.43;;
64871;SDS011;51351;51.450;6.614;2023-08-17T02:15:41;6.75;;;3.95;;
64871;SDS011;51351;51.450;6.614;2023-08-17T02:18:07;6.95;;;4.60;;
64871;SDS011;51351;51.450;6.614;2023-08-17T02:22:59;6.15;;;3.75;;
64871;SDS011;51351;51.450;6.614;2023-08-17T02:25:24;5.55;;;4.25;;
64871;SDS011;51351;51.450;6.614;2023-08-17T02:27:50;6.00;;;4.65;;
64871;SDS011;51351;51.450;6.614;2023-08-17T02:30:16;7.82;;;4.80;;
64871;SDS011;51351;51.450;6.614;2023-08-17T02:32:41;7.78;;;4.70;;
64871;SDS011;51351;51.450;6.614;2023-08-17T02:35:07;6.15;;;4.13;;
64871;SDS011;51351;51.450;6.614;2023-08-17T02:37:33;9.50;;;5.13;;
64871;SDS011;51351;51.450;6.614;2023-08-17T02:39:58;6.50;;;4.90;;
64871;SDS011;51351;51.450;6.614;2023-08-17T02:42:24;6.43;;;5.10;;
64871;SDS011;51351;51.450;6.614;2023-08-17T02:44:49;6.68;;;5.28;;
64871;SDS011;51351;51.450;6.614;2023-08-17T02:47:15;6.97;;;4.75;;
64871;SDS011;51351;51.450;6.614;2023-08-17T02:49:40;7.05;;;5.03;;
64871;SDS011;51351;51.450;6.614;2023-08-17T02:52:06;5.88;;;5.18;;
64871;SDS011;51351;51.450;6.614;2023-08-17T02:54:31;8.55;;;6.10;;
64871;SDS011;51351;51.450;6.614;2023-08-17T02:56:57;6.88;;;4.57;;
64871;SDS011;51351;51.450;6.614;2023-08-17T02:59:23;7.20;;;4.55;;
64871;SDS011;51351;51.450;6.614;2023-08-17T03:01:48;8.70;;;4.65;;
64871;SDS011;51351;51.450;6.614;2023-08-17T03:04:14;7.78;;;3.80;;
64871;SDS011;51351;51.450;6.614;2023-08-17T03:06:39;7.72;;;5.25;;
64871;SDS011;51351;51.450;6.614;2023-08-17T03:09:05;10.00;;;4.28;;
64871;SDS011;51351;51.450;6.614;2023-08-17T03:11:30;7.80;;;4.00;;
64871;SDS011;51351;51.450;6.614;2023-08-17T03:13:56;4.63;;;3.97;;
64871;SDS011;51351;51.450;6.614;2023-08-17T03:16:26;5.47;;;4.07;;
64871;SDS011;51351;51.450;6.614;2023-08-17T03:18:52;8.68;;;4.38;;
64871;SDS011;51351;51.450;6.614;2023-08-17T03:21:18;8.50;;;4.18;;
64871;SDS011;51351;51.450;6.614;2023-08-17T03:23:45;5.20;;;3.75;;
64871;SDS011;51351;51.450;6.614;2023-08-17T03:26:11;6.60;;;3.40;;
64871;SDS011;51351;51.450;6.614;2023-08-17T03:28:36;7.35;;;4.10;;
64871;SDS011;51351;51.450;6.614;2023-08-17T03:31:03;7.13;;;4.00;;
64871;SDS011;51351;51.450;6.614;2023-08-17T03:33:28;12.93;;;5.43;;
64871;SDS011;51351;51.450;6.614;2023-08-17T03:35:55;9.02;;;4.82;;
64871;SDS011;51351;51.450;6.614;2023-08-17T03:38:20;4.60;;;3.92;;
64871;SDS011;51351;51.450;6.614;2023-08-17T03:40:49;7.88;;;4.40;;
64871;SDS011;51351;51.450;6.614;2023-08-17T03:43:14;6.30;;;4.63;;
64871;SDS011;51351;51.450;6.614;2023-08-17T03:45:43;10.00;;;4.85;;
64871;SDS011;51351;51.450;6.614;2023-08-17T03:48:09;9.18;;;5.13;;
64871;SDS011;51351;51.450;6.614;2023-08-17T03:50:34;8.18;;;5.10;;
64871;SDS011;51351;51.450;6.614;2023-08-17T03:53:00;7.95;;;5.25;;
64871;SDS011;51351;51.450;6.614;2023-08-17T03:55:26;7.07;;;5.22;;
64871;SDS011;51351;51.450;6.614;2023-08-17T03:57:51;9.77;;;5.10;;
64871;SDS011;51351;51.450;6.614;2023-08-17T04:00:17;9.05;;;5.85;;
64871;SDS011;51351;51.450;6.614;2023-08-17T04:02:42;9.23;;;4.97;;
64871;SDS011;51351;51.450;6.614;2023-08-17T04:05:13;10.85;;;5.78;;
64871;SDS011;51351;51.450;6.614;2023-08-17T04:07:38;10.23;;;6.73;;
64871;SDS011;51351;51.450;6.614;2023-08-17T04:27:06;8.25;;;5.03;;
64871;SDS011;51351;51.450;6.614;2023-08-17T04:29:32;8.27;;;5.90;;
64871;SDS011;51351;51.450;6.614;2023-08-17T04:32:02;10.02;;;6.45;;
64871;SDS011;51351;51.450;6.614;2023-08-17T04:34:27;14.85;;;5.72;;
64871;SDS011;51351;51.450;6.614;2023-08-17T04:36:55;6.82;;;5.07;;
64871;SDS011;51351;51.450;6.614;2023-08-17T04:39:21;9.20;;;6.43;;
64871;SDS011;51351;51.450;6.614;2023-08-17T04:41:46;7.75;;;5.20;;
64871;SDS011;51351;51.450;6.614;2023-08-17T04:44:17;9.73;;;4.97;;
64871;SDS011;51351;51.450;6.614;2023-08-17T04:46:42;11.07;;;5.88;;
64871;SDS011;51351;51.450;6.614;2023-08-17T04:49:08;8.88;;;5.22;;
64871;SDS011;51351;51.450;6.614;2023-08-17T04:51:33;10.35;;;6.57;;
64871;SDS011;51351;51.450;6.614;2023-08-17T04:53:59;8.77;;;5.45;;
64871;SDS011;51351;51.450;6.614;2023-08-17T04:56:24;9.63;;;4.63;;
64871;SDS011;51351;51.450;6.614;2023-08-17T04:58:51;10.00;;;5.53;;
64871;SDS011;51351;51.450;6.614;2023-08-17T05:01:17;7.43;;;5.53;;
64871;SDS011;51351;51.450;6.614;2023-08-17T05:03:43;10.10;;;5.15;;
64871;SDS011;51351;51.450;6.614;2023-08-17T05:06:09;12.32;;;6.22;;
64871;SDS011;51351;51.450;6.614;2023-08-17T05:08:34;8.20;;;4.97;;
64871;SDS011;51351;51.450;6.614;2023-08-17T05:11:00;7.20;;;5.03;;
64871;SDS011;51351;51.450;6.614;2023-08-17T05:13:26;7.25;;;4.63;;
64871;SDS011;51351;51.450;6.614;2023-08-17T05:15:53;6.70;;;4.20;;
64871;SDS011;51351;51.450;6.614;2023-08-17T05:18:19;7.78;;;4.90;;
64871;SDS011;51351;51.450;6.614;2023-08-17T05:20:45;6.75;;;4.35;;
64871;SDS011;51351;51.450;6.614;2023-08-17T05:23:10;7.32;;;4.70;;
64871;SDS011;51351;51.450;6.614;2023-08-17T05:25:36;7.75;;;4.90;;
64871;SDS011;51351;51.450;6.614;2023-08-17T05:28:02;6.97;;;5.47;;
64871;SDS011;51351;51.450;6.614;2023-08-17T05:30:28;12.48;;;5.25;;
64871;SDS011;51351;51.450;6.614;2023-08-17T05:32:53;11.63;;;5.03;;
64871;SDS011;51351;51.450;6.614;2023-08-17T05:35:19;10.07;;;5.35;;
64871;SDS011;51351;51.450;6.614;2023-08-17T05:37:45;11.38;;;4.68;;
64871;SDS011;51351;51.450;6.614;2023-08-17T05:40:10;7.15;;;4.38;;
64871;SDS011;51351;51.450;6.614;2023-08-17T05:42:36;9.82;;;5.10;;
64871;SDS011;51351;51.450;6.614;2023-08-17T05:45:02;10.32;;;4.63;;
64871;SDS011;51351;51.450;6.614;2023-08-17T05:47:28;7.75;;;4.55;;
64871;SDS011;51351;51.450;6.614;2023-08-17T05:49:53;7.30;;;4.22;;
64871;SDS011;51351;51.450;6.614;2023-08-17T05:52:18;8.18;;;4.78;;
64871;SDS011;51351;51.450;6.614;2023-08-17T05:54:44;9.23;;;5.72;;
64871;SDS011;51351;51.450;6.614;2023-08-17T05:57:09;10.65;;;5.47;;
64871;SDS011;51351;51.450;6.614;2023-08-17T05:59:35;8.43;;;5.57;;
64871;SDS011;51351;51.450;6.614;2023-08-17T06:02:01;8.43;;;5.55;;
64871;SDS011;51351;51.450;6.614;2023-08-17T06:04:26;13.02;;;5.65;;
64871;SDS011;51351;51.450;6.614;2023-08-17T06:06:52;9.63;;;4.35;;
64871;SDS011;51351;51.450;6.614;2023-08-17T06:09:17;6.57;;;4.72;;
64871;SDS011;51351;51.450;6.614;2023-08-17T06:11:43;8.18;;;4.75;;
64871;SDS011;51351;51.450;6.614;2023-08-17T06:14:08;9.35;;;5.20;;
64871;SDS011;51351;51.450;6.614;2023-08-17T06:16:34;8.13;;;5.90;;
64871;SDS011;51351;51.450;6.614;2023-08-17T06:19:00;6.75;;;4.80;;
64871;SDS011;51351;51.450;6.614;2023-08-17T06:21:26;12.90;;;5.90;;
64871;SDS011;51351;51.450;6.614;2023-08-17T06:23:51;9.18;;;6.05;;
64871;SDS011;51351;51.450;6.614;2023-08-17T06:26:17;10.75;;;6.32;;
64871;SDS011;51351;51.450;6.614;2023-08-17T06:31:09;10.02;;;4.82;;
64871;SDS011;51351;51.450;6.614;2023-08-17T06:33:34;7.57;;;5.60;;
64871;SDS011;51351;51.450;6.614;2023-08-17T06:36:00;8.02;;;5.20;;
64871;SDS011;51351;51.450;6.614;2023-08-17T06:38:25;8.48;;;5.18;;
64871;SDS011;51351;51.450;6.614;2023-08-17T06:40:51;10.50;;;5.20;;
64871;SDS011;51351;51.450;6.614;2023-08-17T06:43:18;7.30;;;5.07;;
64871;SDS011;51351;51.450;6.614;2023-08-17T06:45:43;8.88;;;4.55;;
64871;SDS011;51351;51.450;6.614;2023-08-17T06:48:09;6.82;;;5.30;;
64871;SDS011;51351;51.450;6.614;2023-08-17T06:50:34;12.48;;;6.43;;
64871;SDS011;51351;51.450;6.614;2023-08-17T06:53:01;6.95;;;5.50;;
64871;SDS011;51351;51.450;6.614;2023-08-17T06:55:27;13.52;;;6.63;;
64871;SDS011;51351;51.450;6.614;2023-08-17T06:57:52;11.63;;;6.75;;
64871;SDS011;51351;51.450;6.614;2023-08-17T07:00:22;10.65;;;7.43;;
64871;SDS011;51351;51.450;6.614;2023-08-17T07:02:48;14.02;;;7.93;;
64871;SDS011;51351;51.450;6.614;2023-08-17T07:05:17;9.57;;;6.35;;
64871;SDS011;51351;51.450;6.614;2023-08-17T07:07:46;12.32;;;8.18;;
64871;SDS011;51351;51.450;6.614;2023-08-17T07:10:11;12.55;;;8.55;;
64871;SDS011;51351;51.450;6.614;2023-08-17T07:12:37;15.00;;;9.32;;
64871;SDS011;51351;51.450;6.614;2023-08-17T07:17:29;21.50;;;13.23;;
64871;SDS011;51351;51.450;6.614;2023-08-17T07:19:55;19.65;;;12.88;;
64871;SDS011;51351;51.450;6.614;2023-08-17T07:22:20;25.77;;;14.73;;
64871;SDS011;51351;51.450;6.614;2023-08-17T07:24:46;22.75;;;14.65;;
64871;SDS011;51351;51.450;6.614;2023-08-17T07:27:11;22.00;;;13.63;;
64871;SDS011;51351;51.450;6.614;2023-08-17T07:29:37;15.50;;;10.57;;
64871;SDS011;51351;51.450;6.614;2023-08-17T07:32:02;16.50;;;10.35;;
64871;SDS011;51351;51.450;6.614;2023-08-17T07:34:28;12.15;;;8.10;;
64871;SDS011;51351;51.450;6.614;2023-08-17T07:36:56;16.38;;;9.02;;
64871;SDS011;51351;51.450;6.614;2023-08-17T07:39:21;15.48;;;8.73;;
64871;SDS011;51351;51.450;6.614;2023-08-17T07:41:47;14.52;;;8.93;;
64871;SDS011;51351;51.450;6.614;2023-08-17T07:44:12;31.10;;;11.23;;
64871;SDS011;51351;51.450;6.614;2023-08-17T07:46:38;15.23;;;9.32;;
64871;SDS011;51351;51.450;6.614;2023-08-17T07:49:03;18.55;;;10.40;;
64871;SDS011;51351;51.450;6.614;2023-08-17T07:51:29;16.90;;;10.00;;
64871;SDS011;51351;51.450;6.614;2023-08-17T07:53:56;19.70;;;11.32;;
64871;SDS011;51351;51.450;6.614;2023-08-17T07:56:22;18.92;;;11.77;;
64871;SDS011;51351;51.450;6.614;2023-08-17T07:58:48;18.17;;;11.57;;
64871;SDS011;51351;51.450;6.614;2023-08-17T08:01:14;21.65;;;13.27;;
64871;SDS011;51351;51.450;6.614;2023-08-17T08:03:39;24.15;;;14.30;;
64871;SDS011;51351;51.450;6.614;2023-08-17T08:06:04;22.17;;;13.07;;
64871;SDS011;51351;51.450;6.614;2023-08-17T08:08:30;19.92;;;13.23;;
64871;SDS011;51351;51.450;6.614;2023-08-17T08:10:55;19.25;;;13.32;;
64871;SDS011;51351;51.450;6.614;2023-08-17T08:13:21;21.10;;;12.57;;
64871;SDS011;51351;51.450;6.614;2023-08-17T08:15:46;23.42;;;13.05;;
64871;SDS011;51351;51.450;6.614;2023-08-17T08:18:12;22.90;;;14.52;;
64871;SDS011;51351;51.450;6.614;2023-08-17T08:20:37;22.33;;;13.50;;
64871;SDS011;51351;51.450;6.614;2023-08-17T08:23:03;24.33;;;14.43;;
64871;SDS011;51351;51.450;6.614;2023-08-17T08:25:29;23.67;;;13.27;;
64871;SDS011;51351;51.450;6.614;2023-08-17T08:27:54;32.50;;;17.48;;
64871;SDS011;51351;51.450;6.614;2023-08-17T08:30:20;23.23;;;14.52;;
64871;SDS011;51351;51.450;6.614;2023-08-17T08:32:45;24.88;;;16.10;;
64871;SDS011;51351;51.450;6.614;2023-08-17T08:35:11;29.95;;;14.75;;
64871;SDS011;51351;51.450;6.614;2023-08-17T08:37:36;22.20;;;14.60;;
64871;SDS011;51351;51.450;6.614;2023-08-17T08:40:02;22.58;;;14.13;;
64871;SDS011;51351;51.450;6.614;2023-08-17T08:42:27;18.40;;;12.00;;
64871;SDS011;51351;51.450;6.614;2023-08-17T08:44:53;28.15;;;13.80;;
64871;SDS011;51351;51.450;6.614;2023-08-17T08:47:18;21.58;;;14.63;;
64871;SDS011;51351;51.450;6.614;2023-08-17T08:49:49;19.58;;;12.70;;
64871;SDS011;51351;51.450;6.614;2023-08-17T08:52:23;22.63;;;12.68;;
64871;SDS011;51351;51.450;6.614;2023-08-17T08:55:23;20.10;;;13.07;;
64871;SDS011;51351;51.450;6.614;2023-08-17T08:57:51;22.70;;;13.50;;
64871;SDS011;51351;51.450;6.614;2023-08-17T09:00:18;19.80;;;12.57;;
64871;SDS011;51351;51.450;6.614;2023-08-17T09:02:44;22.42;;;12.32;;
64871;SDS011;51351;51.450;6.614;2023-08-17T09:05:11;24.17;;;13.10;;
64871;SDS011;51351;51.450;6.614;2023-08-17T09:07:37;27.20;;;13.75;;
64871;SDS011;51351;51.450;6.614;2023-08-17T09:10:03;29.52;;;15.65;;
64871;SDS011;51351;51.450;6.614;2023-08-17T09:12:30;25.15;;;15.48;;
64871;SDS011;51351;51.450;6.614;2023-08-17T09:14:56;27.95;;;15.52;;
64871;SDS011;51351;51.450;6.614;2023-08-17T09:17:25;23.95;;;15.32;;
64871;SDS011;51351;51.450;6.614;2023-08-17T09:19:51;28.77;;;14.73;;
64871;SDS011;51351;51.450;6.614;2023-08-17T09:22:23;21.52;;;12.20;;
64871;SDS011;51351;51.450;6.614;2023-08-17T09:24:50;24.25;;;14.95;;
64871;SDS011;51351;51.450;6.614;2023-08-17T09:27:15;25.52;;;15.57;;
64871;SDS011;51351;51.450;6.614;2023-08-17T09:29:45;31.20;;;16.73;;
64871;SDS011;51351;51.450;6.614;2023-08-17T09:32:16;25.40;;;15.65;;
64871;SDS011;51351;51.450;6.614;2023-08-17T09:34:42;28.10;;;16.80;;
64871;SDS011;51351;51.450;6.614;2023-08-17T09:37:08;24.52;;;17.30;;
64871;SDS011;51351;51.450;6.614;2023-08-17T09:39:34;25.63;;;17.35;;
64871;SDS011;51351;51.450;6.614;2023-08-17T09:41:59;24.85;;;15.60;;
64871;SDS011;51351;51.450;6.614;2023-08-17T09:44:25;23.95;;;15.98;;
64871;SDS011;51351;51.450;6.614;2023-08-17T09:46:51;26.80;;;17.50;;
64871;SDS011;51351;51.450;6.614;2023-08-17T09:49:19;22.35;;;15.32;;
64871;SDS011;51351;51.450;6.614;2023-08-17T09:51:47;24.42;;;15.48;;
64871;SDS011;51351;51.450;6.614;2023-08-17T09:54:23;23.85;;;15.15;;
64871;SDS011;51351;51.450;6.614;2023-08-17T09:56:52;19.88;;;14.50;;
64871;SDS011;51351;51.450;6.614;2023-08-17T09:59:18;25.17;;;15.90;;
64871;SDS011;51351;51.450;6.614;2023-08-17T10:01:44;25.48;;;15.43;;
64871;SDS011;51351;51.450;6.614;2023-08-17T10:04:13;24.90;;;17.30;;
64871;SDS011;51351;51.450;6.614;2023-08-17T10:06:44;27.58;;;17.50;;
64871;SDS011;51351;51.450;6.614;2023-08-17T10:09:14;32.38;;;18.10;;
64871;SDS011;51351;51.450;6.614;2023-08-17T10:11:48;28.77;;;17.90;;
64871;SDS011;51351;51.450;6.614;2023-08-17T10:14:18;28.80;;;17.75;;
64871;SDS011;51351;51.450;6.614;2023-08-17T10:16:54;27.35;;;15.50;;
64871;SDS011;51351;51.450;6.614;2023-08-17T10:24:40;27.95;;;20.65;;
64871;SDS011;51351;51.450;6.614;2023-08-17T10:27:08;28.02;;;18.10;;
64871;SDS011;51351;51.450;6.614;2023-08-17T10:29:35;30.83;;;19.02;;
64871;SDS011;51351;51.450;6.614;2023-08-17T10:32:03;25.20;;;17.05;;
64871;SDS011;51351;51.450;6.614;2023-08-17T10:34:31;23.98;;;15.48;;
64871;SDS011;51351;51.450;6.614;2023-08-17T10:36:56;21.90;;;15.38;;
64871;SDS011;51351;51.450;6.614;2023-08-17T10:39:26;30.70;;;19.92;;
64871;SDS011;51351;51.450;6.614;2023-08-17T10:41:53;25.80;;;15.15;;
64871;SDS011;51351;51.450;6.614;2023-08-17T10:45:01;20.70;;;14.85;;
64871;SDS011;51351;51.450;6.614;2023-08-17T10:47:25;21.00;;;14.73;;
64871;SDS011;51351;51.450;6.614;2023-08-17T10:49:58;21.20;;;13.90;;
64871;SDS011;51351;51.450;6.614;2023-08-17T10:54:53;21.83;;;12.98;;
64871;SDS011;51351;51.450;6.614;2023-08-17T11:03:00;21.50;;;14.38;;
64871;SDS011;51351;51.450;6.614;2023-08-17T11:05:42;19.02;;;13.13;;
64871;SDS011;51351;51.450;6.614;2023-08-17T11:11:10;21.50;;;16.17;;
64871;SDS011;51351;51.450;6.614;2023-08-17T11:13:43;28.92;;;18.98;;
64871;SDS011;51351;51.450;6.614;2023-08-17T11:16:10;24.70;;;18.15;;
64871;SDS011;51351;51.450;6.614;2023-08-17T11:18:37;26.77;;;18.33;;
64871;SDS011;51351;51.450;6.614;2023-08-17T11:21:03;24.30;;;16.67;;
64871;SDS011;51351;51.450;6.614;2023-08-17T11:23:34;23.77;;;17.63;;
64871;SDS011;51351;51.450;6.614;2023-08-17T11:26:06;26.50;;;19.67;;
64871;SDS011;51351;51.450;6.614;2023-08-17T11:28:33;30.83;;;20.90;;
64871;SDS011;51351;51.450;6.614;2023-08-17T11:31:03;29.42;;;18.90;;
64871;SDS011;51351;51.450;6.614;2023-08-17T11:33:31;26.02;;;16.92;;
64871;SDS011;51351;51.450;6.614;2023-08-17T11:35:58;26.63;;;17.05;;
64871;SDS011;51351;51.450;6.614;2023-08-17T11:38:25;22.52;;;13.65;;
64871;SDS011;51351;51.450;6.614;2023-08-17T11:40:55;18.95;;;12.82;;
64871;SDS011;51351;51.450;6.614;2023-08-17T11:43:25;22.67;;;14.52;;
64871;SDS011;51351;51.450;6.614;2023-08-17T11:45:51;19.77;;;13.85;;
64871;SDS011;51351;51.450;6.614;2023-08-17T11:48:20;21.42;;;14.52;;
64871;SDS011;51351;51.450;6.614;2023-08-17T11:50:48;21.52;;;14.32;;
64871;SDS011;51351;51.450;6.614;2023-08-17T11:53:19;23.10;;;16.42;;
64871;SDS011;51351;51.450;6.614;2023-08-17T11:55:46;25.45;;;18.17;;
64871;SDS011;51351;51.450;6.614;2023-08-17T11:58:14;26.35;;;16.70;;
64871;SDS011;51351;51.450;6.614;2023-08-17T12:00:41;29.73;;;19.10;;
64871;SDS011;51351;51.450;6.614;2023-08-17T12:03:12;29.15;;;18.02;;
64871;SDS011;51351;51.450;6.614;2023-08-17T12:05:40;21.88;;;14.57;;
64871;SDS011;51351;51.450;6.614;2023-08-17T12:08:07;23.67;;;14.77;;
64871;SDS011;51351;51.450;6.614;2023-08-17T12:10:33;23.77;;;16.45;;
64871;SDS011;51351;51.450;6.614;2023-08-17T12:12:59;32.50;;;21.80;;
64871;SDS011;51351;51.450;6.614;2023-08-17T12:15:34;36.85;;;22.23;;
64871;SDS011;51351;51.450;6.614;2023-08-17T12:18:02;26.40;;;17.27;;
64871;SDS011;51351;51.450;6.614;2023-08-17T12:20:34;26.88;;;18.10;;
64871;SDS011;51351;51.450;6.614;2023-08-17T12:23:02;25.08;;;16.38;;
64871;SDS011;51351;51.450;6.614;2023-08-17T12:25:28;16.60;;;12.13;;
64871;SDS011;51351;51.450;6.614;2023-08-17T12:27:53;19.48;;;11.73;;
64871;SDS011;51351;51.450;6.614;2023-08-17T12:32:56;16.95;;;12.80;;
64871;SDS011;51351;51.450;6.614;2023-08-17T12:35:22;21.02;;;14.15;;
64871;SDS011;51351;51.450;6.614;2023-08-17T12:37:49;21.17;;;12.02;;
64871;SDS011;51351;51.450;6.614;2023-08-17T12:40:16;17.45;;;12.48;;
64871;SDS011;51351;51.450;6.614;2023-08-17T12:42:41;19.42;;;12.55;;
64871;SDS011;51351;51.450;6.614;2023-08-17T12:45:07;18.08;;;12.45;;
64871;SDS011;51351;51.450;6.614;2023-08-17T12:47:33;21.17;;;14.73;;
64871;SDS011;51351;51.450;6.614;2023-08-17T12:49:58;22.63;;;15.23;;
64871;SDS011;51351;51.450;6.614;2023-08-17T12:52:25;22.30;;;14.73;;
64871;SDS011;51351;51.450;6.614;2023-08-17T12:54:50;22.02;;;14.85;;
64871;SDS011;51351;51.450;6.614;2023-08-17T12:57:16;21.10;;;14.88;;
64871;SDS011;51351;51.450;6.614;2023-08-17T12:59:41;16.42;;;12.63;;
64871;SDS011;51351;51.450;6.614;2023-08-17T13:02:07;19.48;;;13.60;;
64871;SDS011;51351;51.450;6.614;2023-08-17T13:04:32;19.90;;;14.38;;
64871;SDS011;51351;51.450;6.614;2023-08-17T13:06:58;24.35;;;15.35;;
64871;SDS011;51351;51.450;6.614;2023-08-17T13:09:23;23.23;;;15.70;;
64871;SDS011;51351;51.450;6.614;2023-08-17T13:11:49;29.17;;;16.80;;
64871;SDS011;51351;51.450;6.614;2023-08-17T13:14:14;22.27;;;15.60;;
64871;SDS011;51351;51.450;6.614;2023-08-17T13:16:43;21.45;;;14.70;;
64871;SDS011;51351;51.450;6.614;2023-08-17T13:19:09;21.00;;;14.55;;
64871;SDS011;51351;51.450;6.614;2023-08-17T13:21:34;27.60;;;18.63;;
64871;SDS011;51351;51.450;6.614;2023-08-17T13:24:00;33.03;;;19.70;;
64871;SDS011;51351;51.450;6.614;2023-08-17T13:26:25;26.65;;;20.05;;
64871;SDS011;51351;51.450;6.614;2023-08-17T13:28:51;24.83;;;17.45;;
64871;SDS011;51351;51.450;6.614;2023-08-17T13:31:16;23.45;;;16.80;;
64871;SDS011;51351;51.450;6.614;2023-08-17T13:33:42;20.85;;;15.63;;
64871;SDS011;51351;51.450;6.614;2023-08-17T13:36:07;21.40;;;13.80;;
64871;SDS011;51351;51.450;6.614;2023-08-17T13:38:33;17.13;;;12.13;;
64871;SDS011;51351;51.450;6.614;2023-08-17T13:40:58;17.63;;;12.18;;
64871;SDS011;51351;51.450;6.614;2023-08-17T13:43:24;16.25;;;11.13;;
64871;SDS011;51351;51.450;6.614;2023-08-17T13:45:49;16.63;;;12.48;;
64871;SDS011;51351;51.450;6.614;2023-08-17T13:48:15;19.55;;;13.77;;
64871;SDS011;51351;51.450;6.614;2023-08-17T13:50:40;23.70;;;15.38;;
64871;SDS011;51351;51.450;6.614;2023-08-17T13:53:06;20.83;;;15.52;;
64871;SDS011;51351;51.450;6.614;2023-08-17T13:55:31;22.92;;;16.50;;
64871;SDS011;51351;51.450;6.614;2023-08-17T14:00:23;24.77;;;16.52;;
64871;SDS011;51351;51.450;6.614;2023-08-17T14:02:50;21.08;;;15.25;;
64871;SDS011;51351;51.450;6.614;2023-08-17T14:05:16;21.10;;;14.57;;
64871;SDS011;51351;51.450;6.614;2023-08-17T14:07:42;19.65;;;13.82;;
64871;SDS011;51351;51.450;6.614;2023-08-17T14:10:07;24.35;;;14.52;;
64871;SDS011;51351;51.450;6.614;2023-08-17T14:14:59;22.40;;;15.13;;
64871;SDS011;51351;51.450;6.614;2023-08-17T14:17:24;23.25;;;15.60;;
64871;SDS011;51351;51.450;6.614;2023-08-17T14:19:53;22.20;;;15.30;;
64871;SDS011;51351;51.450;6.614;2023-08-17T14:22:20;26.90;;;18.83;;
64871;SDS011;51351;51.450;6.614;2023-08-17T14:24:45;29.85;;;17.75;;
64871;SDS011;51351;51.450;6.614;2023-08-17T14:27:11;32.63;;;20.63;;
64871;SDS011;51351;51.450;6.614;2023-08-17T14:29:36;29.20;;;19.52;;
64871;SDS011;51351;51.450;6.614;2023-08-17T14:32:02;25.23;;;17.98;;
64871;SDS011;51351;51.450;6.614;2023-08-17T14:34:27;28.05;;;18.52;;
64871;SDS011;51351;51.450;6.614;2023-08-17T14:36:53;25.67;;;16.60;;
64871;SDS011;51351;51.450;6.614;2023-08-17T14:39:18;26.42;;;15.90;;
64871;SDS011;51351;51.450;6.614;2023-08-17T14:41:43;22.77;;;15.00;;
64871;SDS011;51351;51.450;6.614;2023-08-17T14:44:09;28.17;;;17.63;;
64871;SDS011;51351;51.450;6.614;2023-08-17T14:46:34;24.13;;;17.17;;
64871;SDS011;51351;51.450;6.614;2023-08-17T14:49:01;25.08;;;16.83;;
64871;SDS011;51351;51.450;6.614;2023-08-17T14:51:27;25.83;;;16.15;;
64871;SDS011;51351;51.450;6.614;2023-08-17T14:53:53;22.63;;;15.05;;
64871;SDS011;51351;51.450;6.614;2023-08-17T14:56:19;23.95;;;16.08;;
64871;SDS011;51351;51.450;6.614;2023-08-17T14:58:44;24.13;;;16.23;;
64871;SDS011;51351;51.450;6.614;2023-08-17T15:01:10;25.08;;;16.20;;
64871;SDS011;51351;51.450;6.614;2023-08-17T15:03:35;22.20;;;15.15;;
64871;SDS011;51351;51.450;6.614;2023-08-17T15:06:01;22.10;;;14.50;;
64871;SDS011;51351;51.450;6.614;2023-08-17T15:08:26;21.85;;;14.65;;
64871;SDS011;51351;51.450;6.614;2023-08-17T15:10:52;24.77;;;15.68;;
64871;SDS011;51351;51.450;6.614;2023-08-17T15:15:43;24.40;;;14.45;;
64871;SDS011;51351;51.450;6.614;2023-08-17T15:18:09;24.95;;;13.85;;
64871;SDS011;51351;51.450;6.614;2023-08-17T15:20:35;22.23;;;14.02;;
64871;SDS011;51351;51.450;6.614;2023-08-17T15:23:00;19.27;;;13.68;;
64871;SDS011;51351;51.450;6.614;2023-08-17T15:25:26;20.52;;;12.75;;